createdAt,value
2022-07-29T00:04:43.721Z,1.17
2022-07-29T00:09:51.820Z,1.02
2022-07-29T00:14:55.753Z,1.20
2022-07-29T00:19:57.402Z,1.40
2022-07-29T00:24:59.195Z,1.30
2022-07-29T00:30:00.880Z,1.35
2022-07-29T00:35:21.238Z,1.10
2022-07-29T00:40:23.618Z,1.35
2022-07-29T00:45:25.587Z,1.10
2022-07-29T00:50:28.019Z,1.30
2022-07-29T00:55:30.091Z,1.40
2022-07-29T01:00:31.926Z,1.35
2022-07-29T01:05:50.666Z,1.20
2022-07-29T01:10:55.113Z,1.30
2022-07-29T01:16:03.967Z,1.40
2022-07-29T01:21:14.609Z,1.45
2022-07-29T01:26:21.959Z,1.45
2022-07-29T01:31:32.831Z,1.20
2022-07-29T01:36:44.517Z,1.40
2022-07-29T01:42:02.591Z,1.60
2022-07-29T01:47:12.587Z,1.58
2022-07-29T01:52:24.642Z,1.40
2022-07-29T01:57:30.218Z,1.27
2022-07-29T02:02:36.067Z,1.52
2022-07-29T02:07:38.881Z,1.35
2022-07-29T02:12:43.579Z,1.35
2022-07-29T02:18:02.158Z,1.33
2022-07-29T02:23:04.540Z,1.55
2022-07-29T02:28:09.289Z,1.20
2022-07-29T02:33:14.508Z,1.35
2022-07-29T02:38:36.392Z,1.50
2022-07-29T02:43:38.158Z,1.23
2022-07-29T02:48:53.005Z,1.50
2022-07-29T02:53:57.741Z,1.75
2022-07-29T02:59:04.063Z,1.52
2022-07-29T03:04:06.434Z,1.60
2022-07-29T03:09:13.231Z,1.60
2022-07-29T03:14:17.816Z,1.70
2022-07-29T03:19:21.408Z,1.73
2022-07-29T03:24:34.266Z,1.55
2022-07-29T03:29:36.022Z,1.50
2022-07-29T03:34:38.808Z,1.95
2022-07-29T03:39:42.460Z,1.80
2022-07-29T03:44:48.577Z,1.70
2022-07-29T03:49:53.509Z,1.77
2022-07-29T03:54:55.282Z,1.50
2022-07-29T03:59:57.742Z,1.40
2022-07-29T04:04:59.911Z,1.88
2022-07-29T04:10:01.630Z,1.73
2022-07-29T04:15:07.016Z,1.60
2022-07-29T04:20:09.491Z,1.45
2022-07-29T04:25:11.256Z,1.48
2022-07-29T04:30:13.352Z,1.98
2022-07-29T04:35:15.068Z,1.73
2022-07-29T04:40:16.846Z,1.83
2022-07-29T04:45:22.512Z,1.70
2022-07-29T04:50:24.698Z,2.15
2022-07-29T04:55:26.511Z,1.95
2022-07-29T05:00:33.250Z,1.92
2022-07-29T05:05:35.452Z,1.73
2022-07-29T05:10:39.049Z,1.75
2022-07-29T05:15:40.852Z,1.70
2022-07-29T05:20:42.648Z,1.90
2022-07-29T05:25:45.002Z,1.65
2022-07-29T05:30:46.917Z,1.80
2022-07-29T05:35:48.591Z,1.55
2022-07-29T05:40:50.353Z,1.75
2022-07-29T05:45:52.004Z,1.50
2022-07-29T05:50:54.428Z,2.25
2022-07-29T05:55:56.033Z,1.50
2022-07-29T06:01:01.740Z,1.65
2022-07-29T06:06:03.728Z,1.80
2022-07-29T06:11:05.989Z,1.85
2022-07-29T06:16:07.976Z,2.20
2022-07-29T06:21:10.913Z,2.60
2022-07-29T06:26:12.626Z,2.20
2022-07-29T06:31:14.429Z,2.25
2022-07-29T06:36:16.568Z,2.00
2022-07-29T06:41:19.449Z,1.73
2022-07-29T06:46:22.470Z,1.50
2022-07-29T06:51:24.375Z,1.60
2022-07-29T06:56:26.358Z,1.90
2022-07-29T07:01:28.010Z,1.83
2022-07-29T07:06:29.656Z,1.85
2022-07-29T07:11:31.626Z,1.92
2022-07-29T07:16:33.672Z,1.70
2022-07-29T07:21:41.541Z,2.10
2022-07-29T07:26:43.125Z,1.70
2022-07-29T07:31:44.772Z,1.92
2022-07-29T07:36:46.421Z,2.00
2022-07-29T07:41:48.301Z,1.50
2022-07-29T07:46:50.078Z,1.88
2022-07-29T07:51:53.519Z,1.83
2022-07-29T07:56:55.533Z,1.92
2022-07-29T08:01:57.768Z,2.17
2022-07-29T08:07:00.550Z,2.17
2022-07-29T08:12:04.951Z,2.20
2022-07-29T08:17:07.543Z,1.83
2022-07-29T08:22:09.200Z,2.17
2022-07-29T08:27:33.360Z,1.98
2022-07-29T08:32:52.560Z,2.08
2022-07-29T08:37:55.036Z,2.28
2022-07-29T08:42:56.686Z,2.55
2022-07-29T08:47:58.483Z,2.25
2022-07-29T08:53:00.764Z,2.25
2022-07-29T08:58:02.971Z,1.90
2022-07-29T09:03:05.928Z,2.30
2022-07-29T09:08:07.961Z,1.90
2022-07-29T09:13:10.178Z,2.33
2022-07-29T09:18:20.473Z,2.10
2022-07-29T09:23:32.492Z,2.50
2022-07-29T09:28:34.058Z,2.20
2022-07-29T09:33:36.669Z,2.30
2022-07-29T09:38:38.770Z,1.98
2022-07-29T09:43:41.557Z,2.40
2022-07-29T09:48:43.363Z,1.92
2022-07-29T09:53:44.997Z,2.47
2022-07-29T09:58:46.643Z,2.30
2022-07-29T10:03:53.069Z,2.80
2022-07-29T10:09:07.613Z,2.30
2022-07-29T10:14:09.488Z,2.00
2022-07-29T10:19:11.412Z,1.73
2022-07-29T10:24:14.866Z,2.00
2022-07-29T10:29:16.896Z,1.88
2022-07-29T10:34:31.706Z,1.80
2022-07-29T10:40:30.737Z,1.38
2022-07-29T10:45:32.565Z,1.65
2022-07-29T10:51:01.474Z,1.90
2022-07-29T10:56:23.539Z,1.52
2022-07-29T11:01:37.062Z,1.80
2022-07-29T11:07:13.737Z,1.55
2022-07-29T11:12:43.313Z,1.50
2022-07-29T11:18:01.441Z,1.40
2022-07-29T11:23:19.638Z,1.63
2022-07-29T11:28:25.495Z,1.20
2022-07-29T11:33:54.431Z,0.80
2022-07-29T11:39:37.204Z,1.25
2022-07-29T11:44:57.676Z,1.42
2022-07-29T11:50:02.225Z,0.98
2022-07-29T11:55:09.872Z,0.90
2022-07-29T12:00:14.666Z,1.27
2022-07-29T12:05:39.698Z,1.15
2022-07-29T12:10:51.739Z,0.90
2022-07-29T12:15:55.845Z,1.10
2022-07-29T12:21:06.225Z,0.80
2022-07-29T12:26:10.931Z,0.70
2022-07-29T12:31:44.101Z,0.90
2022-07-29T12:36:47.421Z,1.02
2022-07-29T12:41:52.928Z,0.73
2022-07-29T12:47:08.546Z,0.90
2022-07-29T12:52:26.059Z,0.90
2022-07-29T12:57:28.451Z,1.07
2022-07-29T13:02:31.629Z,1.10
2022-07-29T13:07:54.690Z,1.20
2022-07-29T13:13:11.174Z,1.10
2022-07-29T13:18:29.929Z,1.48
2022-07-29T13:23:31.518Z,1.55
2022-07-29T13:28:40.891Z,1.27
2022-07-29T13:33:45.988Z,1.50
2022-07-29T13:38:47.579Z,1.35
2022-07-29T13:43:50.099Z,1.52
2022-07-29T13:48:52.020Z,1.10
2022-07-29T13:53:57.614Z,1.30
2022-07-29T13:59:08.289Z,1.20
2022-07-29T14:04:11.248Z,1.10
2022-07-29T14:09:17.781Z,1.00
2022-07-29T14:14:20.506Z,0.85
2022-07-29T14:19:23.379Z,1.38
2022-07-29T14:24:25.576Z,1.33
2022-07-29T14:29:37.213Z,1.17
2022-07-29T14:34:40.569Z,1.30
2022-07-29T14:39:43.217Z,1.10
2022-07-29T14:44:45.243Z,1.27
2022-07-29T14:49:51.523Z,1.10
2022-07-29T14:54:53.392Z,0.85
2022-07-29T14:59:55.718Z,1.00
2022-07-29T15:04:57.685Z,1.00
2022-07-29T15:09:59.774Z,1.30
2022-07-29T15:15:01.617Z,0.90
2022-07-29T15:20:05.780Z,0.90
2022-07-29T15:25:07.807Z,1.13
2022-07-29T15:30:10.522Z,1.10
2022-07-29T15:35:29.728Z,0.93
2022-07-29T15:40:31.739Z,1.10
2022-07-29T15:45:40.992Z,1.02
2022-07-29T15:50:42.842Z,1.27
2022-07-29T15:55:48.807Z,0.88
2022-07-29T16:00:50.628Z,0.82
2022-07-29T16:05:52.406Z,0.98
2022-07-29T16:10:54.031Z,1.08
2022-07-29T16:16:02.091Z,1.10
2022-07-29T16:21:04.854Z,0.80
2022-07-29T16:26:07.066Z,0.93
2022-07-29T16:31:09.323Z,1.23
2022-07-29T16:36:11.111Z,1.00
2022-07-29T16:41:15.143Z,0.63
2022-07-29T16:46:18.780Z,0.93
2022-07-29T16:51:27.844Z,1.00
2022-07-29T16:56:34.478Z,0.77
2022-07-29T17:01:39.912Z,0.90
2022-07-29T17:06:42.518Z,1.08
2022-07-29T17:11:52.882Z,1.17
2022-07-29T17:17:01.370Z,1.30
2022-07-29T17:22:11.757Z,1.67
2022-07-29T17:27:22.682Z,1.60
2022-07-29T17:32:24.888Z,1.20
2022-07-29T17:37:28.845Z,1.80
2022-07-29T17:42:30.639Z,1.60
2022-07-29T17:47:40.402Z,1.50
2022-07-29T17:52:42.456Z,1.70
2022-07-29T17:57:44.111Z,1.50
2022-07-29T18:02:46.148Z,1.67
2022-07-29T18:07:47.762Z,1.58
2022-07-29T18:12:49.451Z,2.10
2022-07-29T18:17:56.725Z,2.05
2022-07-29T18:23:01.186Z,2.42
2022-07-29T18:28:08.847Z,2.30
2022-07-29T18:33:22.009Z,2.33
2022-07-29T18:38:24.012Z,2.30
2022-07-29T18:43:43.171Z,2.00
2022-07-29T18:48:53.629Z,2.28
2022-07-29T18:53:59.425Z,2.20
2022-07-29T18:59:04.925Z,2.20
2022-07-29T19:04:06.429Z,1.98
2022-07-29T19:09:15.558Z,1.63
2022-07-29T19:14:19.258Z,2.03
2022-07-29T19:19:23.867Z,1.75
2022-07-29T19:24:25.390Z,1.75
2022-07-29T19:29:27.487Z,1.63
2022-07-29T19:34:31.293Z,1.60
2022-07-29T19:39:35.267Z,1.73
2022-07-29T19:44:54.583Z,1.58
2022-07-29T19:49:56.231Z,1.63
2022-07-29T19:55:07.608Z,1.60
2022-07-29T20:00:11.611Z,1.65
2022-07-29T20:05:13.292Z,1.50
2022-07-29T20:10:20.693Z,1.80
2022-07-29T20:15:26.877Z,1.98
2022-07-29T20:20:29.916Z,1.77
2022-07-29T20:25:31.542Z,1.48
2022-07-29T20:30:38.584Z,1.20
2022-07-29T20:35:40.951Z,1.60
2022-07-29T20:40:42.570Z,1.55
2022-07-29T20:45:46.757Z,1.52
2022-07-29T20:50:49.942Z,1.42
2022-07-29T20:55:51.606Z,1.45
2022-07-29T21:00:53.155Z,1.45
2022-07-29T21:05:57.274Z,1.60
2022-07-29T21:10:58.860Z,1.40
2022-07-29T21:16:14.835Z,1.73
2022-07-29T21:21:20.220Z,2.03
2022-07-29T21:26:24.188Z,1.50
2022-07-29T21:31:29.695Z,1.98
2022-07-29T21:36:48.277Z,2.20
2022-07-29T21:42:07.929Z,2.00
2022-07-29T21:47:11.946Z,1.50
2022-07-29T21:52:18.584Z,1.40
2022-07-29T21:57:26.547Z,1.83
2022-07-29T22:02:30.735Z,1.65
2022-07-29T22:07:54.711Z,1.50
2022-07-29T22:12:56.514Z,1.70
2022-07-29T22:18:01.157Z,1.67
2022-07-29T22:23:02.725Z,2.30
2022-07-29T22:28:06.687Z,2.15
2022-07-29T22:33:08.194Z,2.00
2022-07-29T22:38:13.193Z,2.00
2022-07-29T22:43:16.815Z,2.10
2022-07-29T22:48:19.930Z,2.28
2022-07-29T22:53:22.067Z,2.10
2022-07-29T22:58:23.611Z,2.00
2022-07-29T23:03:31.186Z,2.25
2022-07-29T23:08:36.222Z,2.60
2022-07-29T23:13:40.188Z,2.42
2022-07-29T23:18:48.826Z,2.28
2022-07-29T23:23:58.599Z,2.55
2022-07-29T23:29:00.221Z,2.85
2022-07-29T23:34:02.400Z,2.65
2022-07-29T23:39:04.116Z,2.65
2022-07-29T23:44:07.714Z,2.67
2022-07-29T23:49:13.878Z,2.83
2022-07-29T23:54:20.280Z,3.00
2022-07-29T23:59:21.854Z,2.78
